KRHI/RHI METAR and TAF weather

Enter ICAO airport designator
Station Type Date Time Source
KRHI METAR 2021/07/30 23:53 UTC NOAA

KRHI 302353Z AUTO 24005KT 10SM CLR 23/14 A3011 RMK AO2 SLP194 T02280139 10244 20211 58010


Station Type Date Time Source
KRHI Decoded METAR 2021/07/30 23:53 UTC NOAA

RHINELANDER-ONEIDA CO AIRPORT , WI, United States (KRHI) 45-38N 89-29W 485M
Jul 30, 2021 - 07:53 PM EDT / 2021.07.30 2353 UTC
Wind: from the WSW (240 degrees) at 6 MPH (5 KT):0
Visibility: 10 mile(s):0
Sky conditions: clear
Temperature: 73.0 F (22.8 C)
Dew Point: 57.0 F (13.9 C)
Relative Humidity: 57%
Pressure (altimeter): 30.11 in. Hg (1019 hPa)
Pressure tendency: 0.03 inches (1.0 hPa) lower than three hours ago
ob: KRHI 302353Z AUTO 24005KT 10SM CLR 23/14 A3011 RMK AO2 SLP194 T02280139 10244 20211 58010
cycle: 0

Station Type Date Time Source
KRHI TAF 2021/07/30 18:22 UTC NOAA

TAF KRHI 301720Z 3018/3118 VRB03KT P6SM SCT040
FM310100 24005KT P6SM SCT250
FM311000 27006KT P6SM BKN110

Example: see airport list